createdAt,value
2018-06-11T00:00:30.077Z,79.9
2018-06-11T00:01:10.591Z,80.38
2018-06-11T00:01:51.155Z,80.38
2018-06-11T00:02:31.686Z,80.09
2018-06-11T00:03:12.195Z,80.28
2018-06-11T00:03:52.662Z,80.09
2018-06-11T00:04:33.205Z,80.28
2018-06-11T00:05:13.713Z,80.09
2018-06-11T00:05:54.220Z,79.7
2018-06-11T00:06:34.709Z,79.6
2018-06-11T00:07:15.238Z,79.32
2018-06-11T00:07:55.770Z,79.6
2018-06-11T00:08:36.282Z,79.6
2018-06-11T00:09:16.788Z,79.6
2018-06-11T00:09:57.340Z,79.6
2018-06-11T00:10:37.851Z,79.5
2018-06-11T00:11:18.378Z,79.41
2018-06-11T00:11:58.887Z,80.28
2018-06-11T00:12:39.495Z,80.19
2018-06-11T00:13:19.974Z,80.47
2018-06-11T00:14:00.525Z,81.21
2018-06-11T00:14:41.030Z,81.02
2018-06-11T00:15:21.570Z,81.12
2018-06-11T00:16:02.153Z,81.02
2018-06-11T00:16:42.745Z,81.4
2018-06-11T00:17:23.183Z,80.82
2018-06-11T00:18:03.690Z,81.02
2018-06-11T00:18:44.208Z,81.5
2018-06-11T00:19:24.738Z,81.21
2018-06-11T00:20:05.292Z,81.4
2018-06-11T00:20:45.826Z,81.89
2018-06-11T00:21:26.367Z,82.28
2018-06-11T00:22:06.842Z,82.08
2018-06-11T00:22:47.477Z,81.98
2018-06-11T00:23:28.032Z,82.08
2018-06-11T00:24:08.621Z,82.08
2018-06-11T00:24:49.120Z,82.08
2018-06-11T00:25:29.679Z,82.08
2018-06-11T00:26:10.220Z,82.37
2018-06-11T00:26:50.761Z,82.47
2018-06-11T00:27:33.939Z,81.79
2018-06-11T00:28:14.459Z,82.28
2018-06-11T00:28:55.017Z,82.43
2018-06-11T00:29:35.820Z,82.33
2018-06-11T00:30:16.349Z,82.47
2018-06-11T00:30:56.901Z,82.47
2018-06-11T00:31:37.381Z,81.79
2018-06-11T00:32:17.878Z,81.79
2018-06-11T00:32:58.418Z,81.4
2018-06-11T00:33:38.928Z,81.3
2018-06-11T00:34:19.479Z,82.08
2018-06-11T00:34:59.948Z,81.3
2018-06-11T00:35:40.471Z,81.7
2018-06-11T00:36:21.020Z,81.65
2018-06-11T00:37:01.569Z,81.6
2018-06-11T00:37:42.040Z,81.89
2018-06-11T00:38:22.640Z,82.28
2018-06-11T00:39:03.339Z,82.23
2018-06-11T00:39:43.856Z,82.28
2018-06-11T00:40:24.333Z,82.33
2018-06-11T00:41:04.892Z,82.23
2018-06-11T00:41:45.375Z,82.81
2018-06-11T00:42:25.908Z,82.72
2018-06-11T00:43:06.451Z,82.53
2018-06-11T00:43:46.993Z,82.62
2018-06-11T00:44:27.487Z,82.53
2018-06-11T00:45:08.037Z,82.72
2018-06-11T00:45:48.577Z,83.11
2018-06-11T00:46:29.130Z,82.72
2018-06-11T00:47:09.614Z,83.11
2018-06-11T00:47:50.140Z,82.81
2018-06-11T00:48:32.593Z,83.3
2018-06-11T00:49:13.070Z,83.11
2018-06-11T00:49:53.626Z,83.11
2018-06-11T00:50:34.127Z,82.91
2018-06-11T00:51:14.678Z,82.91
2018-06-11T00:51:55.269Z,82.91
2018-06-11T00:52:35.692Z,82.91
2018-06-11T00:53:16.218Z,83.2
2018-06-11T00:53:56.759Z,82.81
2018-06-11T00:54:37.273Z,83.3
2018-06-11T00:55:17.841Z,82.14
2018-06-11T00:55:58.306Z,83.11
2018-06-11T00:56:38.825Z,83.49
2018-06-11T00:57:19.331Z,83.4
2018-06-11T00:57:59.814Z,83.3
2018-06-11T00:58:40.414Z,83.4
2018-06-11T00:59:20.918Z,83.2
2018-06-11T01:00:01.424Z,83.3
2018-06-11T01:00:41.971Z,82.91
2018-06-11T01:01:22.481Z,83.49
2018-06-11T01:02:03.025Z,83.3
2018-06-11T01:02:43.557Z,83.2
2018-06-11T01:03:24.105Z,83.2
2018-06-11T01:04:04.628Z,83.49
2018-06-11T01:04:46.803Z,83.59
2018-06-11T01:05:27.292Z,83.4
2018-06-11T01:06:07.838Z,83.2
2018-06-11T01:06:48.373Z,83.59
2018-06-11T01:07:30.788Z,83.2
2018-06-11T01:08:11.326Z,83.59
2018-06-11T01:08:51.850Z,83.49
2018-06-11T01:09:32.362Z,83.45
2018-06-11T01:10:12.867Z,83.88
2018-06-11T01:10:53.386Z,84.42
2018-06-11T01:11:33.886Z,84.52
2018-06-11T01:12:14.434Z,83.78
2018-06-11T01:12:55.005Z,84.22
2018-06-11T01:13:35.487Z,83.94
2018-06-11T01:14:15.980Z,83.64
2018-06-11T01:14:56.500Z,84.52
2018-06-11T01:15:36.988Z,83.74
2018-06-11T01:16:17.489Z,83.55
2018-06-11T01:16:58.004Z,83.94
2018-06-11T01:17:38.522Z,83.74
2018-06-11T01:18:19.038Z,84.03
2018-06-11T01:18:59.556Z,84.22
2018-06-11T01:19:40.063Z,84.42
2018-06-11T01:20:20.601Z,84.42
2018-06-11T01:21:01.092Z,84.61
2018-06-11T01:21:41.584Z,84.52
2018-06-11T01:22:22.099Z,84.52
2018-06-11T01:23:02.631Z,84.52
2018-06-11T01:23:43.158Z,84.32
2018-06-11T01:24:23.685Z,84.13
2018-06-11T01:25:04.199Z,84.42
2018-06-11T01:25:44.742Z,84.22
2018-06-11T01:26:25.240Z,84.03
2018-06-11T01:27:05.740Z,84.42
2018-06-11T01:27:46.253Z,84.42
2018-06-11T01:28:26.761Z,84.42
2018-06-11T01:29:07.252Z,84.13
2018-06-11T01:29:47.761Z,83.94
2018-06-11T01:30:28.271Z,83.84
2018-06-11T01:31:08.881Z,83.94
2018-06-11T01:31:49.399Z,83.84
2018-06-11T01:32:29.924Z,83.36
2018-06-11T01:33:10.423Z,83.74
2018-06-11T01:33:50.946Z,83.55
2018-06-11T01:34:31.438Z,83.74
2018-06-11T01:35:11.960Z,83.84
2018-06-11T01:35:52.452Z,83.74
2018-06-11T01:36:32.974Z,83.64
2018-06-11T01:37:13.492Z,83.55
2018-06-11T01:37:54.024Z,83.74
2018-06-11T01:38:34.504Z,83.84
2018-06-11T01:39:15.001Z,83.45
2018-06-11T01:39:55.503Z,83.94
2018-06-11T01:40:36.020Z,84.22
2018-06-11T01:41:16.519Z,83.84
2018-06-11T01:41:57.025Z,83.94
2018-06-11T01:42:37.533Z,83.84
2018-06-11T01:43:18.032Z,84.03
2018-06-11T01:43:58.571Z,83.64
2018-06-11T01:44:39.103Z,83.84
2018-06-11T01:45:19.595Z,84.22
2018-06-11T01:46:00.082Z,83.64
2018-06-11T01:46:40.618Z,83.74
2018-06-11T01:47:21.164Z,83.36
2018-06-11T01:48:01.633Z,83.36
2018-06-11T01:48:42.152Z,83.06
2018-06-11T01:49:22.674Z,83.16
2018-06-11T01:50:04.873Z,82.78
2018-06-11T01:50:45.407Z,82.78
2018-06-11T01:51:25.957Z,83.06
2018-06-11T01:52:06.462Z,83.94
2018-06-11T01:52:46.983Z,83.06
2018-06-11T01:53:27.483Z,83.64
2018-06-11T01:54:10.018Z,83.45
2018-06-11T01:54:50.515Z,83.16
2018-06-11T01:55:30.993Z,82.97
2018-06-11T01:56:11.522Z,83.06
2018-06-11T01:56:52.049Z,83.26
2018-06-11T01:57:32.591Z,83.16
2018-06-11T01:58:13.087Z,83.26
2018-06-11T01:58:53.626Z,82.78
2018-06-11T01:59:34.135Z,83.16
2018-06-11T02:00:14.671Z,83.45
2018-06-11T02:00:55.190Z,83.26
2018-06-11T02:01:35.717Z,83.55
2018-06-11T02:02:16.230Z,82.78
2018-06-11T02:02:56.797Z,83.26
2018-06-11T02:03:37.267Z,83.36
2018-06-11T02:04:17.764Z,83.06
2018-06-11T02:04:58.247Z,83.16
2018-06-11T02:05:38.736Z,83.16
2018-06-11T02:06:19.296Z,83.55
2018-06-11T02:06:59.806Z,83.55
2018-06-11T02:07:40.285Z,83.45
2018-06-11T02:08:20.832Z,83.26
2018-06-11T02:09:01.357Z,83.55
2018-06-11T02:09:41.856Z,83.55
2018-06-11T02:10:24.284Z,83.16
2018-06-11T02:11:04.814Z,83.74
2018-06-11T02:11:45.364Z,83.06
2018-06-11T02:12:27.731Z,83.16
2018-06-11T02:13:08.247Z,83.16
2018-06-11T02:13:48.794Z,83.06
2018-06-11T02:14:29.323Z,83.06
2018-06-11T02:15:11.880Z,84.13
2018-06-11T02:15:52.297Z,83.94
2018-06-11T02:16:32.846Z,83.94
2018-06-11T02:17:13.318Z,84.13
2018-06-11T02:17:53.835Z,83.94
2018-06-11T02:18:34.345Z,83.94
2018-06-11T02:19:14.866Z,83.94
2018-06-11T02:19:55.416Z,84.13
2018-06-11T02:20:35.952Z,84.13
2018-06-11T02:21:16.472Z,84.52
2018-06-11T02:21:57.023Z,84.22
2018-06-11T02:22:37.478Z,84.22
2018-06-11T02:23:17.982Z,84.61
2018-06-11T02:23:58.502Z,83.94
2018-06-11T02:24:39.094Z,84.52
2018-06-11T02:25:19.551Z,84.32
2018-06-11T02:26:00.057Z,83.94
2018-06-11T02:26:40.550Z,84.22
2018-06-11T02:27:21.063Z,83.94
2018-06-11T02:28:01.591Z,84.32
2018-06-11T02:28:42.087Z,83.64
2018-06-11T02:29:22.692Z,84.42
2018-06-11T02:30:05.978Z,83.74
2018-06-11T02:30:46.487Z,83.74
2018-06-11T02:31:26.984Z,84.13
2018-06-11T02:32:07.540Z,84.03
2018-06-11T02:32:48.025Z,83.74
2018-06-11T02:33:30.405Z,83.36
2018-06-11T02:34:12.432Z,84.03
2018-06-11T02:34:52.993Z,84.32
2018-06-11T02:35:33.513Z,84.42
2018-06-11T02:36:14.069Z,84.52
2018-06-11T02:36:54.535Z,84.61
2018-06-11T02:37:35.932Z,84.77
2018-06-11T02:38:16.417Z,84.61
2018-06-11T02:38:56.957Z,84.57
2018-06-11T02:39:37.454Z,84.42
2018-06-11T02:40:17.953Z,84.38
2018-06-11T02:40:58.480Z,84.47
2018-06-11T02:41:39.053Z,84.61
2018-06-11T02:42:19.522Z,84.38
2018-06-11T02:43:00.052Z,84.22
2018-06-11T02:43:40.582Z,84.13
2018-06-11T02:44:21.097Z,84.42
2018-06-11T02:45:01.606Z,84.22
2018-06-11T02:45:42.098Z,84.22
2018-06-11T02:46:22.620Z,84.42
2018-06-11T02:47:03.157Z,84.52
2018-06-11T02:47:43.720Z,84.32
2018-06-11T02:48:24.259Z,84.42
2018-06-11T02:49:04.872Z,84.57
2018-06-11T02:49:45.353Z,85
2018-06-11T02:50:25.844Z,84.95
2018-06-11T02:51:06.371Z,85
2018-06-11T02:51:46.917Z,84.9
2018-06-11T02:52:27.371Z,85
2018-06-11T02:53:07.932Z,85.19
2018-06-11T02:53:48.474Z,84.71
2018-06-11T02:54:29.016Z,84.9
2018-06-11T02:55:09.493Z,85.58
2018-06-11T02:55:49.961Z,85.97
2018-06-11T02:56:30.476Z,85.77
2018-06-11T02:57:11.000Z,85.97
2018-06-11T02:57:51.516Z,85.87
2018-06-11T02:58:32.045Z,85.39
2018-06-11T02:59:12.589Z,85.48
2018-06-11T02:59:53.108Z,85.1
2018-06-11T03:00:33.721Z,85.29
2018-06-11T03:01:14.224Z,85.1
2018-06-11T03:01:54.799Z,85.29
2018-06-11T03:02:35.325Z,84.9
2018-06-11T03:03:15.880Z,85.58
2018-06-11T03:03:56.449Z,85
2018-06-11T03:04:36.959Z,85.68
2018-06-11T03:05:17.454Z,85.39
2018-06-11T03:06:01.650Z,85.97
2018-06-11T03:06:42.160Z,85.97
2018-06-11T03:07:24.490Z,85.87
2018-06-11T03:08:04.956Z,85.87
2018-06-11T03:08:45.472Z,85.29
2018-06-11T03:09:25.967Z,85.19
2018-06-11T03:10:06.491Z,85.48
2018-06-11T03:10:46.974Z,85.29
2018-06-11T03:11:27.504Z,85.77
2018-06-11T03:12:08.082Z,85.97
2018-06-11T03:12:48.602Z,85.77
2018-06-11T03:13:29.205Z,86.25
2018-06-11T03:14:09.689Z,86.16
2018-06-11T03:14:50.209Z,86.25
2018-06-11T03:15:30.847Z,87.03
2018-06-11T03:16:11.290Z,86.55
2018-06-11T03:16:51.812Z,86.6
2018-06-11T03:17:32.602Z,86.79
2018-06-11T03:18:12.853Z,86.99
2018-06-11T03:18:53.421Z,87.37
2018-06-11T03:19:33.934Z,87.18
2018-06-11T03:20:14.450Z,87.76
2018-06-11T03:20:54.979Z,87.27
2018-06-11T03:21:35.465Z,87.37
2018-06-11T03:22:16.022Z,87.47
2018-06-11T03:22:56.510Z,87.47
2018-06-11T03:23:38.581Z,87.37
2018-06-11T03:24:19.091Z,87.85
2018-06-11T03:24:59.609Z,87.95
2018-06-11T03:25:40.125Z,87.76
2018-06-11T03:26:20.644Z,87.95
2018-06-11T03:27:01.219Z,87.76
2018-06-11T03:27:41.739Z,87.27
2018-06-11T03:28:23.943Z,87.37
2018-06-11T03:29:04.461Z,87.27
2018-06-11T03:29:45.049Z,87.57
2018-06-11T03:30:25.543Z,87.08
2018-06-11T03:31:06.118Z,86.99
2018-06-11T03:31:46.656Z,87.47
2018-06-11T03:32:27.161Z,87.47
2018-06-11T03:33:07.660Z,87.18
2018-06-11T03:33:48.205Z,87.57
2018-06-11T03:34:28.690Z,87.66
2018-06-11T03:35:09.183Z,87.47
2018-06-11T03:35:49.824Z,87.27
2018-06-11T03:36:30.225Z,87.03
2018-06-11T03:37:10.801Z,87.08
2018-06-11T03:37:51.306Z,87.13
2018-06-11T03:38:31.805Z,86.6
2018-06-11T03:39:12.362Z,87.47
2018-06-11T03:39:52.990Z,87.18
2018-06-11T03:40:33.608Z,86.89
2018-06-11T03:41:14.095Z,86.89
2018-06-11T03:41:54.616Z,86.69
2018-06-11T03:42:35.180Z,87.13
2018-06-11T03:43:15.721Z,86.6
2018-06-11T03:43:58.105Z,86.79
2018-06-11T03:44:38.617Z,86.69
2018-06-11T03:45:19.116Z,86.6
2018-06-11T03:45:59.623Z,86.83
2018-06-11T03:46:40.112Z,86.45
2018-06-11T03:47:20.633Z,86.65
2018-06-11T03:48:01.144Z,86.45
2018-06-11T03:48:41.665Z,86.55
2018-06-11T03:49:22.163Z,86.35
2018-06-11T03:50:02.682Z,86.65
2018-06-11T03:50:43.884Z,86.93
2018-06-11T03:51:25.921Z,86.45
2018-06-11T03:52:06.428Z,86.55
2018-06-11T03:52:47.016Z,86.74
2018-06-11T03:53:27.512Z,86.35
2018-06-11T03:54:09.679Z,86.55
2018-06-11T03:54:50.246Z,86.89
2018-06-11T03:55:30.837Z,86.89
2018-06-11T03:56:11.291Z,86.83
2018-06-11T03:56:51.839Z,86.74
2018-06-11T03:57:32.408Z,86.93
2018-06-11T03:58:12.944Z,86.74
2018-06-11T03:58:53.456Z,86.55
2018-06-11T03:59:33.977Z,86.65
2018-06-11T04:00:14.541Z,86.45
2018-06-11T04:00:55.142Z,86.83
2018-06-11T04:01:35.626Z,86.55
2018-06-11T04:02:16.112Z,86.65
2018-06-11T04:02:56.614Z,86.65
2018-06-11T04:03:37.117Z,86.55
2018-06-11T04:04:17.643Z,86.74
2018-06-11T04:04:58.169Z,85.97
2018-06-11T04:05:38.644Z,86.16
2018-06-11T04:06:19.187Z,85.77
2018-06-11T04:06:59.711Z,85.39
2018-06-11T04:07:40.221Z,85.39
2018-06-11T04:08:20.741Z,85.52
2018-06-11T04:09:01.265Z,85.14
2018-06-11T04:09:41.797Z,84.9
2018-06-11T04:10:22.344Z,85.39
2018-06-11T04:11:02.925Z,85.42
2018-06-11T04:11:45.328Z,85.68
2018-06-11T04:12:25.861Z,85.29
2018-06-11T04:13:06.386Z,85.68
2018-06-11T04:13:46.866Z,85.48
2018-06-11T04:14:27.402Z,85.29
2018-06-11T04:15:07.923Z,85.39
2018-06-11T04:15:48.470Z,85.48
2018-06-11T04:16:28.997Z,85
2018-06-11T04:17:11.328Z,84.66
2018-06-11T04:17:51.835Z,84.84
2018-06-11T04:18:32.448Z,84.75
2018-06-11T04:19:15.826Z,84.46
2018-06-11T04:19:56.301Z,83.73
2018-06-11T04:20:36.850Z,84.01
2018-06-11T04:21:17.369Z,83.34
2018-06-11T04:21:57.929Z,83.92
2018-06-11T04:22:38.409Z,84.11
2018-06-11T04:23:18.892Z,83.63
2018-06-11T04:23:59.436Z,83.34
2018-06-11T04:24:39.944Z,82.95
2018-06-11T04:25:20.442Z,82.95
2018-06-11T04:26:00.974Z,83.25
2018-06-11T04:26:41.461Z,82.6
2018-06-11T04:27:21.987Z,83.38
2018-06-11T04:28:02.457Z,83.09
2018-06-11T04:28:42.981Z,82.76
2018-06-11T04:29:23.487Z,82.76
2018-06-11T04:30:03.956Z,82.76
2018-06-11T04:30:44.492Z,83.28
2018-06-11T04:31:25.000Z,83
2018-06-11T04:32:05.473Z,82.7
2018-06-11T04:32:46.036Z,82.51
2018-06-11T04:33:26.646Z,82.6
2018-06-11T04:34:07.134Z,82.8
2018-06-11T04:34:47.654Z,82.9
2018-06-11T04:35:28.210Z,83.25
2018-06-11T04:36:08.759Z,82.76
2018-06-11T04:36:49.308Z,83.15
2018-06-11T04:37:29.816Z,82.95
2018-06-11T04:38:10.351Z,83.09
2018-06-11T04:38:50.869Z,83.25
2018-06-11T04:39:31.445Z,82.28
2018-06-11T04:40:11.924Z,82.95
2018-06-11T04:40:52.444Z,83.15
2018-06-11T04:41:32.953Z,82.76
2018-06-11T04:42:13.495Z,82.95
2018-06-11T04:42:53.984Z,83.15
2018-06-11T04:43:34.498Z,83.34
2018-06-11T04:44:15.007Z,82.86
2018-06-11T04:44:55.530Z,83.05
2018-06-11T04:45:36.033Z,83.15
2018-06-11T04:46:16.552Z,83.73
2018-06-11T04:46:57.077Z,83.83
2018-06-11T04:47:37.622Z,83.53
2018-06-11T04:48:18.079Z,83.05
2018-06-11T04:48:58.589Z,83.15
2018-06-11T04:49:39.109Z,83.44
2018-06-11T04:50:19.699Z,83.34
2018-06-11T04:51:00.165Z,83.4
2018-06-11T04:51:40.692Z,83.98
2018-06-11T04:52:21.212Z,83.69
2018-06-11T04:53:01.712Z,84.46
2018-06-11T04:53:42.243Z,83.69
2018-06-11T04:54:22.765Z,83.4
2018-06-11T04:55:03.284Z,83.92
2018-06-11T04:55:43.789Z,83.73
2018-06-11T04:56:24.301Z,83.83
2018-06-11T04:57:04.827Z,82.95
2018-06-11T04:57:45.370Z,82.9
2018-06-11T04:58:25.915Z,82.66
2018-06-11T04:59:06.461Z,83.09
2018-06-11T04:59:46.994Z,82.7
2018-06-11T05:00:27.511Z,82.32
2018-06-11T05:01:08.028Z,81.93
2018-06-11T05:01:48.543Z,81.35
2018-06-11T05:02:29.089Z,81.54
2018-06-11T05:03:09.638Z,81.64
2018-06-11T05:03:50.128Z,81.83
2018-06-11T05:04:30.650Z,82.03
2018-06-11T05:05:11.163Z,81.48
2018-06-11T05:05:51.668Z,80.42
2018-06-11T05:06:32.176Z,80.22
2018-06-11T05:07:12.719Z,80.13
2018-06-11T05:07:53.223Z,80.03
2018-06-11T05:08:33.742Z,80.13
2018-06-11T05:09:14.247Z,80.13
2018-06-11T05:09:54.802Z,80.03
2018-06-11T05:10:35.302Z,79.93
2018-06-11T05:11:15.862Z,80.32
2018-06-11T05:11:57.012Z,80.32
2018-06-11T05:12:37.245Z,79.45
2018-06-11T05:13:17.906Z,80.42
2018-06-11T05:13:58.328Z,79.35
2018-06-11T05:14:38.818Z,79.68
2018-06-11T05:15:19.365Z,79.14
2018-06-11T05:15:59.825Z,77.98
2018-06-11T05:16:40.331Z,76.75
2018-06-11T05:17:20.812Z,77.24
2018-06-11T05:18:01.315Z,76.95
2018-06-11T05:18:41.850Z,76.37
2018-06-11T05:19:22.383Z,76.01
2018-06-11T05:20:02.947Z,76.37
2018-06-11T05:20:43.454Z,78.89
2018-06-11T05:21:23.945Z,79.08
2018-06-11T05:22:04.494Z,78.83
2018-06-11T05:22:45.024Z,78.83
2018-06-11T05:23:25.548Z,80.38
2018-06-11T05:24:06.066Z,84.46
2018-06-11T05:24:46.570Z,84.12
2018-06-11T05:25:27.090Z,82.18
2018-06-11T05:26:07.607Z,79.22
2018-06-11T05:26:48.142Z,78.11
2018-06-11T05:27:28.648Z,79.47
2018-06-11T05:28:09.164Z,81.16
2018-06-11T05:28:49.726Z,80.05
2018-06-11T05:29:30.230Z,80.34
2018-06-11T05:30:10.752Z,82.67
2018-06-11T05:30:51.269Z,82.97
2018-06-11T05:31:31.785Z,84.71
2018-06-11T05:32:12.313Z,83.94
2018-06-11T05:32:52.822Z,81.6
2018-06-11T05:33:33.353Z,80.48
2018-06-11T05:34:13.866Z,80.34
2018-06-11T05:34:54.448Z,78.83
2018-06-11T05:35:34.925Z,81.55
2018-06-11T05:36:15.433Z,84.61
2018-06-11T05:36:55.944Z,85.78
2018-06-11T05:37:36.555Z,87.33
2018-06-11T05:38:17.083Z,84.12
2018-06-11T05:38:57.604Z,81.6
2018-06-11T05:39:38.126Z,80.54
2018-06-11T05:40:18.669Z,80.34
2018-06-11T05:40:59.166Z,84.94
2018-06-11T05:41:39.669Z,84.36
2018-06-11T05:42:20.194Z,82.52
2018-06-11T05:43:00.713Z,81.51
2018-06-11T05:43:41.232Z,80.05
2018-06-11T05:44:21.751Z,79.9
2018-06-11T05:45:02.272Z,79.51
2018-06-11T05:45:42.791Z,78.44
2018-06-11T05:46:23.307Z,78.15
2018-06-11T05:47:03.845Z,80.73
2018-06-11T05:47:44.355Z,81.21
2018-06-11T05:48:24.879Z,79.66
2018-06-11T05:49:05.423Z,82.34
2018-06-11T05:49:45.934Z,83.4
2018-06-11T05:50:26.438Z,83.7
2018-06-11T05:51:06.959Z,83.07
2018-06-11T05:51:47.487Z,82.73
2018-06-11T05:52:28.031Z,82.34
2018-06-11T05:53:08.527Z,83.12
2018-06-11T05:53:49.068Z,83.89
2018-06-11T05:54:29.653Z,83.56
2018-06-11T05:55:10.162Z,82.24
2018-06-11T05:55:50.705Z,82.34
2018-06-11T05:56:31.206Z,82.92
2018-06-11T05:57:11.758Z,82.44
2018-06-11T05:57:52.274Z,83.22
2018-06-11T05:58:32.816Z,82.63
2018-06-11T05:59:13.382Z,83.6
2018-06-11T05:59:53.904Z,81.95
2018-06-11T06:00:34.417Z,82.53
2018-06-11T06:01:15.051Z,81.21
2018-06-11T06:01:55.572Z,78.73
2018-06-11T06:02:36.089Z,78.44
2018-06-11T06:03:16.612Z,79.35
2018-06-11T06:03:57.145Z,79.16
2018-06-11T06:04:37.669Z,78.87
2018-06-11T06:05:18.185Z,79.64
2018-06-11T06:05:58.731Z,79.35
2018-06-11T06:06:39.242Z,80.62
2018-06-11T06:07:19.826Z,81.88
2018-06-11T06:08:00.381Z,83.24
2018-06-11T06:08:41.423Z,82.75
2018-06-11T06:09:21.888Z,80.81
2018-06-11T06:10:02.408Z,81.73
2018-06-11T06:10:42.936Z,80.85
2018-06-11T06:11:23.516Z,82.02
2018-06-11T06:12:04.031Z,80.94
2018-06-11T06:12:44.544Z,79.43
2018-06-11T06:13:25.104Z,81.67
2018-06-11T06:14:05.612Z,82.84
2018-06-11T06:14:46.122Z,82.84
2018-06-11T06:15:26.629Z,82.7
2018-06-11T06:16:07.153Z,80.94
2018-06-11T06:16:47.677Z,81.92
2018-06-11T06:17:28.187Z,81.53
2018-06-11T06:18:08.730Z,81.04
2018-06-11T06:18:49.238Z,83.67
2018-06-11T06:19:29.791Z,86.29
2018-06-11T06:20:10.302Z,84.74
2018-06-11T06:20:50.826Z,82.6
2018-06-11T06:21:31.356Z,83.57
2018-06-11T06:22:11.913Z,82.6
2018-06-11T06:22:52.423Z,82.7
2018-06-11T06:23:33.382Z,81.73
2018-06-11T06:24:13.760Z,83.37
2018-06-11T06:24:54.278Z,83.57
2018-06-11T06:25:34.874Z,84.58
2018-06-11T06:26:15.359Z,86.33
2018-06-11T06:26:57.854Z,85.27
2018-06-11T06:27:38.393Z,83.95
2018-06-11T06:28:18.910Z,82.87
2018-06-11T06:28:59.441Z,81.61
2018-06-11T06:29:39.946Z,85.21
2018-06-11T06:30:20.501Z,84.72
2018-06-11T06:31:01.017Z,82.68
2018-06-11T06:31:41.533Z,81.02
2018-06-11T06:32:22.049Z,81.9
2018-06-11T06:33:02.617Z,82.29
2018-06-11T06:33:43.152Z,82.53
2018-06-11T06:34:23.798Z,81.36
2018-06-11T06:35:04.231Z,83.06
2018-06-11T06:35:44.741Z,79.84
2018-06-11T06:36:25.239Z,82.96
2018-06-11T06:37:05.825Z,83.25
2018-06-11T06:37:46.342Z,84.52
2018-06-11T06:38:26.873Z,85.88
2018-06-11T06:39:07.399Z,82.18
2018-06-11T06:39:47.901Z,80.82
2018-06-11T06:40:28.455Z,79.16
2018-06-11T06:41:09.023Z,78.77
2018-06-11T06:41:49.641Z,77.31
2018-06-11T06:42:30.139Z,83.79
2018-06-11T06:43:10.644Z,82.72
2018-06-11T06:43:51.327Z,82.49
2018-06-11T06:44:31.812Z,80.54
2018-06-11T06:45:12.445Z,79.28
2018-06-11T06:45:55.401Z,79.63
2018-06-11T06:46:35.946Z,82.74
2018-06-11T06:47:16.396Z,82.7
2018-06-11T06:47:56.930Z,81.73
2018-06-11T06:48:37.451Z,82.54
2018-06-11T06:49:18.041Z,81.86
2018-06-11T06:49:58.629Z,80.69
2018-06-11T06:50:39.156Z,81.67
2018-06-11T06:51:21.607Z,81.86
2018-06-11T06:52:02.154Z,82.31
2018-06-11T06:52:42.735Z,83.18
2018-06-11T06:53:23.266Z,82.02
2018-06-11T06:54:03.783Z,79.78
2018-06-11T06:54:44.318Z,79.78
2018-06-11T06:55:26.541Z,79.1
2018-06-11T06:56:07.040Z,80.69
2018-06-11T06:56:47.545Z,80.69
2018-06-11T06:57:28.032Z,80.15
2018-06-11T06:58:08.616Z,81.12
2018-06-11T06:58:49.094Z,80.54
2018-06-11T06:59:29.729Z,80.64
2018-06-11T07:00:10.226Z,79.47
2018-06-11T07:00:50.730Z,79.38
2018-06-11T07:01:31.244Z,79.86
2018-06-11T07:02:11.794Z,76.94
2018-06-11T07:02:52.311Z,76.42
2018-06-11T07:03:32.851Z,75.48
2018-06-11T07:04:13.370Z,79.38
2018-06-11T07:04:53.965Z,83.75
2018-06-11T07:05:34.491Z,84.92
2018-06-11T07:06:15.014Z,86.47
2018-06-11T07:06:55.535Z,85.11
2018-06-11T07:07:36.065Z,85.31
2018-06-11T07:08:16.596Z,84.05
2018-06-11T07:08:57.099Z,83.17
2018-06-11T07:09:37.680Z,82.97
2018-06-11T07:10:18.179Z,80.64
2018-06-11T07:10:58.690Z,82
2018-06-11T07:11:39.218Z,84.23
2018-06-11T07:12:19.731Z,83.21
2018-06-11T07:13:00.438Z,80.77
2018-06-11T07:13:40.995Z,82.62
2018-06-11T07:14:21.462Z,83.89
2018-06-11T07:15:01.984Z,83.06
2018-06-11T07:15:42.513Z,80.72
2018-06-11T07:16:23.028Z,79.45
2018-06-11T07:17:03.543Z,78.91
2018-06-11T07:17:44.076Z,78.42
2018-06-11T07:18:24.591Z,80.95
2018-06-11T07:19:05.116Z,80.56
2018-06-11T07:19:45.667Z,83.82
2018-06-11T07:20:26.205Z,83.68
2018-06-11T07:21:06.747Z,83.09
2018-06-11T07:21:47.270Z,85.33
2018-06-11T07:22:27.803Z,85.14
2018-06-11T07:23:08.340Z,83.97
2018-06-11T07:23:48.930Z,78.42
2018-06-11T07:24:29.445Z,83.93
2018-06-11T07:25:09.979Z,84.61
2018-06-11T07:25:50.506Z,82.8
2018-06-11T07:26:31.039Z,81.49
2018-06-11T07:27:11.587Z,77.5
2018-06-11T07:27:52.091Z,80.23
2018-06-11T07:28:32.610Z,79.88
2018-06-11T07:29:13.139Z,80.91
2018-06-11T07:29:53.853Z,80.07
2018-06-11T07:30:34.367Z,80.95
2018-06-11T07:31:14.893Z,79.88
2018-06-11T07:31:55.404Z,83
2018-06-11T07:32:35.972Z,81.83
2018-06-11T07:33:16.474Z,84.75
2018-06-11T07:33:57.004Z,84.27
2018-06-11T07:34:37.523Z,85.33
2018-06-11T07:35:18.104Z,83
2018-06-11T07:35:58.622Z,79.64
2018-06-11T07:36:39.154Z,79.16
2018-06-11T07:37:19.679Z,78.09
2018-06-11T07:38:00.206Z,78.28
2018-06-11T07:38:40.725Z,79.16
2018-06-11T07:39:21.238Z,82.08
2018-06-11T07:40:01.763Z,81.88
2018-06-11T07:40:42.285Z,82.76
2018-06-11T07:41:22.843Z,79.25
2018-06-11T07:42:03.367Z,76.53
2018-06-11T07:42:43.884Z,77.11
2018-06-11T07:43:24.418Z,77.5
2018-06-11T07:44:04.953Z,79.64
2018-06-11T07:44:45.487Z,78.83
2018-06-11T07:45:26.037Z,79.51
2018-06-11T07:46:06.559Z,76.59
2018-06-11T07:46:47.101Z,74.74
2018-06-11T07:47:27.620Z,77.27
2018-06-11T07:48:08.188Z,80.97
2018-06-11T07:48:48.670Z,81.16
2018-06-11T07:49:29.201Z,82.33
2018-06-11T07:50:09.722Z,79.32
2018-06-11T07:50:50.283Z,78.34
2018-06-11T07:51:30.757Z,78.92
2018-06-11T07:52:11.268Z,79.02
2018-06-11T07:52:51.803Z,79.9
2018-06-11T07:53:32.350Z,76.43
2018-06-11T07:54:12.850Z,74.58
2018-06-11T07:54:53.374Z,74
2018-06-11T07:55:33.858Z,77.31
2018-06-11T07:56:14.393Z,77.47
2018-06-11T07:56:54.944Z,79.32
2018-06-11T07:57:35.438Z,77.6
2018-06-11T07:58:15.947Z,74.58
2018-06-11T07:58:56.484Z,75.56
2018-06-11T07:59:36.975Z,76.73
2018-06-11T08:00:17.518Z,82.76
2018-06-11T08:00:58.132Z,86.36
2018-06-11T08:01:38.634Z,83.73
2018-06-11T08:02:19.137Z,80.33
2018-06-11T08:02:59.697Z,74.87
2018-06-11T08:03:40.244Z,74.19
2018-06-11T08:04:20.735Z,76.04
2018-06-11T08:05:01.254Z,77.8
2018-06-11T08:05:41.788Z,82.67
2018-06-11T08:06:22.306Z,76.43
2018-06-11T08:07:02.779Z,77.31
2018-06-11T08:07:43.278Z,82.08
2018-06-11T08:08:23.796Z,84.12
2018-06-11T08:09:04.303Z,79.3
2018-06-11T08:09:44.833Z,76.18
2018-06-11T08:10:25.338Z,82.9
2018-06-11T08:11:05.871Z,83.97
2018-06-11T08:11:46.377Z,77.93
2018-06-11T08:12:26.902Z,79.59
2018-06-11T08:13:07.542Z,77.34
2018-06-11T08:13:48.041Z,76.08
2018-06-11T08:14:28.564Z,75.01
2018-06-11T08:15:09.063Z,76.08
2018-06-11T08:15:49.591Z,79.88
2018-06-11T08:16:30.076Z,77.58
2018-06-11T08:17:10.656Z,75.69
2018-06-11T08:17:51.191Z,76.12
2018-06-11T08:18:31.806Z,74.56
2018-06-11T08:19:12.241Z,77.19
2018-06-11T08:19:52.774Z,76.31
2018-06-11T08:20:33.290Z,80.66
2018-06-11T08:21:13.789Z,81.34
2018-06-11T08:21:54.322Z,78.22
2018-06-11T08:22:36.729Z,74.23
2018-06-11T08:23:17.213Z,73.94
2018-06-11T08:23:57.721Z,74.27
2018-06-11T08:24:38.261Z,75.3
2018-06-11T08:25:18.783Z,74.76
2018-06-11T08:25:59.321Z,73.58
2018-06-11T08:26:39.852Z,78.13
2018-06-11T08:27:20.413Z,77.39
2018-06-11T08:28:00.888Z,75.73
2018-06-11T08:28:41.403Z,74.95
2018-06-11T08:29:21.938Z,77.68
2018-06-11T08:30:02.497Z,79.14
2018-06-11T08:30:43.023Z,78.16
2018-06-11T08:31:23.561Z,79.14
2018-06-11T08:32:04.073Z,78.94
2018-06-11T08:32:44.590Z,83.33
2018-06-11T08:33:25.110Z,86.2
2018-06-11T08:34:05.663Z,86.94
2018-06-11T08:34:46.153Z,87.52
2018-06-11T08:35:26.641Z,87.23
2018-06-11T08:36:08.955Z,82.84
2018-06-11T08:36:49.529Z,82.94
2018-06-11T08:37:30.015Z,81.03
2018-06-11T08:38:10.567Z,74.98
2018-06-11T08:38:51.105Z,74.4
2018-06-11T08:39:31.609Z,75.57
2018-06-11T08:40:12.137Z,80.41
2018-06-11T08:40:52.694Z,81.57
2018-06-11T08:41:33.220Z,80.41
2018-06-11T08:42:13.750Z,77.81
2018-06-11T08:42:54.279Z,74.01
2018-06-11T08:43:34.791Z,72.84
2018-06-11T08:44:15.383Z,77.52
2018-06-11T08:44:55.908Z,78.94
2018-06-11T08:45:36.431Z,79.04